Time;durP1;ratioP1;P1;durP2;ratioP2;P2;SDS_P1;SDS_P2;PMS_P1;PMS_P2;Temp;Humidity;BMP_temperature;BMP_pressure;BME280_temperature;BME280_humidity;BME280_pressure;Samples;Min_cycle;Max_cycle;Signal;HPM_P1;HPM_P2
2022/12/12 00:02:10;;;;;;;38.00;22.88;;;;;;;-0.94;100.00;101084.56;5014796;28;20108;-86
2022/12/12 00:04:36;;;;;;;38.55;22.85;;;;;;;-1.44;100.00;101035.28;5014727;28;20481;-86
2022/12/12 00:07:01;;;;;;;39.60;23.20;;;;;;;-1.23;100.00;101085.72;5014384;28;20026;-86
2022/12/12 00:09:26;;;;;;;38.75;22.05;;;;;;;-1.38;100.00;101093.44;5014524;28;20109;-87
2022/12/12 00:11:51;;;;;;;34.67;21.95;;;;;;;-1.51;100.00;101099.50;5014499;28;20084;-85
2022/12/12 00:14:17;;;;;;;38.63;21.25;;;;;;;-1.63;100.00;101092.00;5014291;28;20433;-86
2022/12/12 00:16:42;;;;;;;36.05;20.85;;;;;;;-1.74;100.00;101094.63;5014370;28;20030;-87
2022/12/12 00:19:07;;;;;;;37.75;22.10;;;;;;;-1.84;100.00;101085.44;5014552;28;20072;-87
2022/12/12 00:21:33;;;;;;;39.70;22.90;;;;;;;-1.95;100.00;101090.59;5014152;28;20037;-87
2022/12/12 00:23:58;;;;;;;39.22;22.75;;;;;;;-2.10;100.00;101078.03;5014322;28;20084;-85
2022/12/12 00:26:29;;;;;;;38.33;22.88;;;;;;;-2.10;100.00;101093.22;4996655;28;20092;-86
2022/12/12 00:28:56;;;;;;;41.05;22.00;;;;;;;-2.18;100.00;101090.72;5014053;28;20033;-77
2022/12/12 00:31:22;;;;;;;38.70;21.92;;;;;;;-2.30;100.00;101075.63;5013968;28;20474;-82
2022/12/12 00:33:48;;;;;;;37.55;21.80;;;;;;;-2.31;100.00;101086.59;5013958;28;20036;-80
2022/12/12 00:36:18;;;;;;;37.97;21.77;;;;;;;-2.39;100.00;101084.13;5014097;28;20506;-80
2022/12/12 00:38:44;;;;;;;39.65;21.35;;;;;;;-2.39;100.00;101094.22;5013724;28;20033;-79
2022/12/12 00:41:09;;;;;;;36.38;21.35;;;;;;;-2.45;100.00;101101.88;5013779;28;20032;-84
2022/12/12 00:43:34;;;;;;;39.00;21.88;;;;;;;-2.62;100.00;101079.19;5013827;28;20026;-80
2022/12/12 00:46:00;;;;;;;39.40;22.13;;;;;;;-2.49;100.00;101104.41;5013912;28;20026;-78
2022/12/12 00:48:26;;;;;;;41.40;21.98;;;;;;;-2.69;100.00;101076.69;5013617;28;20030;-79
2022/12/12 00:50:53;;;;;;;37.35;21.80;;;;;;;-2.55;100.00;101096.88;5013791;28;20026;-76
2022/12/12 00:53:19;;;;;;;40.67;22.27;;;;;;;-2.67;100.00;101085.09;5013614;28;20022;-78
2022/12/12 00:55:44;;;;;;;35.03;21.25;;;;;;;-2.63;100.00;101102.78;5013567;28;20049;-80
2022/12/12 00:58:10;;;;;;;36.30;21.02;;;;;;;-2.70;100.00;101096.06;5013673;28;20562;-78
2022/12/12 01:00:39;;;;;;;38.20;22.48;;;;;;;-2.72;100.00;101090.19;5013367;28;20038;-78
2022/12/12 01:03:04;;;;;;;38.10;21.35;;;;;;;-2.71;100.00;101099.44;5013800;28;20417;-75
2022/12/12 01:05:29;;;;;;;40.92;22.73;;;;;;;-2.73;100.00;101102.84;5013477;28;20026;-76
2022/12/12 01:07:55;;;;;;;38.75;22.35;;;;;;;-2.78;100.00;101112.94;5012398;28;20453;-79
2022/12/12 01:10:20;;;;;;;38.08;21.20;;;;;;;-2.80;100.00;101111.28;5013412;28;20030;-80
2022/12/12 01:12:45;;;;;;;42.97;21.80;;;;;;;-2.82;100.00;101112.97;5013227;28;20030;-75
2022/12/12 01:15:11;;;;;;;41.15;22.45;;;;;;;-2.86;100.00;101116.34;5013309;28;20054;-78
2022/12/12 01:17:37;;;;;;;40.30;21.88;;;;;;;-2.89;100.00;101119.72;5013498;28;20124;-74
2022/12/12 01:20:13;;;;;;;41.42;22.35;;;;;;;-2.93;100.00;101113.84;5013275;28;20501;-77
2022/12/12 01:22:38;;;;;;;36.63;21.23;;;;;;;-2.95;100.00;101123.13;5013096;28;20116;-76
2022/12/12 01:25:04;;;;;;;37.75;22.42;;;;;;;-2.95;100.00;101124.78;5013140;28;20073;-78
2022/12/12 01:27:29;;;;;;;40.65;22.73;;;;;;;-2.93;100.00;101128.19;5013074;28;20026;-75
2022/12/12 01:29:57;;;;;;;40.78;22.42;;;;;;;-2.88;100.00;101131.53;5013002;28;20034;-76
2022/12/12 01:32:22;;;;;;;42.78;22.80;;;;;;;-2.87;100.00;101133.19;5013136;28;20105;-77
2022/12/12 01:34:47;;;;;;;41.22;23.30;;;;;;;-2.85;100.00;101138.25;5013183;28;20393;-76
2022/12/12 01:37:13;;;;;;;39.10;22.42;;;;;;;-2.84;100.00;101142.47;5013065;28;20025;-76
2022/12/12 01:39:38;;;;;;;39.67;22.50;;;;;;;-2.87;100.00;101135.72;5012966;28;20034;-77
2022/12/12 01:42:08;;;;;;;39.50;21.52;;;;;;;-2.86;100.00;101144.16;5012860;28;20034;-76
2022/12/12 01:44:43;;;;;;;39.28;22.52;;;;;;;-2.88;100.00;101146.69;5012931;28;20026;-76
2022/12/12 01:47:10;;;;;;;38.20;20.70;;;;;;;-2.94;100.00;101145.03;5013050;28;20026;-75
2022/12/12 01:49:36;;;;;;;39.78;21.75;;;;;;;-2.96;100.00;101145.84;5013113;28;20034;-75
2022/12/12 01:52:10;;;;;;;42.85;23.23;;;;;;;-2.95;100.00;101145.88;5013124;28;20487;-76
2022/12/12 01:54:41;;;;;;;43.28;22.92;;;;;;;-3.04;100.00;101140.84;5012708;28;20025;-87
2022/12/12 01:57:14;;;;;;;37.45;22.15;;;;;;;-2.97;100.00;101146.69;5012971;28;20092;-87
2022/12/12 01:59:40;;;;;;;43.70;22.60;;;;;;;-2.98;100.00;101148.38;5013171;28;20049;-88
2022/12/12 02:02:07;;;;;;;40.47;23.00;;;;;;;-3.00;100.00;101154.31;5012749;28;20061;-87
2022/12/12 02:04:33;;;;;;;41.63;22.95;;;;;;;-3.00;100.00;101146.72;4995472;28;20350;-88
2022/12/12 02:06:58;;;;;;;44.03;22.50;;;;;;;-3.01;100.00;101148.41;5012875;28;20033;-87
2022/12/12 02:09:36;;;;;;;38.08;22.85;;;;;;;-3.06;100.00;101150.09;5012496;28;20026;-82
2022/12/12 02:12:02;;;;;;;39.97;21.98;;;;;;;-3.04;100.00;101155.16;5012815;28;20041;-89
2022/12/12 02:14:30;;;;;;;38.67;21.63;;;;;;;-3.04;100.00;101157.69;5011566;28;20030;-88
2022/12/12 02:17:09;;;;;;;42.83;23.15;;;;;;;-3.05;100.00;101150.94;5012777;28;20060;-87
2022/12/12 02:20:07;;;;;;;41.20;23.92;;;;;;;-3.00;100.00;101151.78;5015700;28;20030;-88
2022/12/12 02:23:03;;;;;;;43.17;23.95;;;;;;;-3.15;100.00;101136.63;5016191;28;20033;-88
2022/12/12 02:25:31;;;;;;;38.90;21.92;;;;;;;-3.01;100.00;101161.03;5016347;28;20507;-87
2022/12/12 02:28:17;;;;;;;44.33;23.30;;;;;;;-3.14;100.00;101146.75;5015206;28;20034;-86
2022/12/12 02:31:09;;;;;;;42.25;23.58;;;;;;;-3.03;100.00;101156.84;5016264;28;20439;-88
2022/12/12 02:33:38;;;;;;;;;;;;;;;-3.04;100.00;101160.22;5016701;28;20030;-87
2022/12/12 02:36:44;;;;;;;41.03;22.67;;;;;;;-3.11;100.00;101164.44;5016226;28;19913;-83
2022/12/12 02:39:30;;;;;;;40.80;22.67;;;;;;;-3.29;100.00;101149.28;5015950;28;20026;-83
2022/12/12 02:42:05;;;;;;;45.88;23.80;;;;;;;-3.20;100.00;101172.84;5016250;28;20034;-87
2022/12/12 02:44:42;;;;;;;39.53;22.88;;;;;;;-3.22;100.00;101161.91;5016101;28;20058;-87
2022/12/12 02:47:28;;;;;;;40.70;23.83;;;;;;;-3.32;100.00;101157.72;5016023;28;20018;-86
2022/12/12 02:49:59;;;;;;;45.00;25.60;;;;;;;-3.41;100.00;101146.78;5016122;28;20033;-88
2022/12/12 02:52:25;;;;;;;42.22;23.45;;;;;;;-3.39;100.00;101148.47;5016022;28;20054;-88
2022/12/12 02:54:50;;;;;;;41.08;23.08;;;;;;;-3.44;100.00;101154.34;5015881;28;20111;-88
2022/12/12 02:57:19;;;;;;;39.35;23.90;;;;;;;-3.59;100.00;101140.06;5015840;28;20052;-86
2022/12/12 02:59:50;;;;;;;46.25;25.67;;;;;;;-3.52;100.00;101165.31;5015805;28;20492;-87
2022/12/12 03:02:18;;;;;;;41.80;23.95;;;;;;;-3.56;100.00;101162.75;5015542;28;20034;-85
2022/12/12 03:08:01;;;;;;;47.85;23.83;;;;;;;-3.66;100.00;101161.06;5015670;28;20044;-84
2022/12/12 03:10:39;;;;;;;47.72;25.15;;;;;;;-3.85;100.00;101140.88;5015355;28;20438;-88
2022/12/12 03:13:05;;;;;;;43.60;23.60;;;;;;;-3.77;100.00;101166.13;5015417;28;20470;-85
2022/12/12 03:15:58;;;;;;;42.15;23.10;;;;;;;-3.81;100.00;101167.81;5015606;28;20068;-86
2022/12/12 03:18:27;;;;;;;41.97;23.02;;;;;;;-3.87;100.00;101165.25;5015138;28;20026;-78
2022/12/12 03:21:03;;;;;;;40.30;22.45;;;;;;;-3.92;100.00;101166.94;5015266;28;20052;-76
2022/12/12 03:23:37;;;;;;;42.40;23.77;;;;;;;-3.99;100.00;101167.78;5015219;28;20057;-77
2022/12/12 03:26:11;;;;;;;42.88;24.13;;;;;;;-4.06;100.00;101146.72;5015101;28;20036;-83
2022/12/12 03:28:58;;;;;;;42.38;22.95;;;;;;;-4.24;100.00;101125.66;5015292;28;20036;-86
2022/12/12 03:31:29;;;;;;;44.78;24.17;;;;;;;-4.01;100.00;101156.00;5014390;28;20109;-76
2022/12/12 03:34:03;;;;;;;46.55;24.92;;;;;;;-4.06;100.00;101169.44;5014792;28;20084;-77
2022/12/12 03:36:41;;;;;;;44.45;24.90;;;;;;;-4.10;100.00;101162.72;5014968;28;20036;-75
2022/12/12 03:39:22;;;;;;;45.53;25.40;;;;;;;-4.12;100.00;101166.06;5014998;28;20021;-76
2022/12/12 03:41:57;;;;;;;44.90;23.92;;;;;;;-4.26;100.00;101155.94;5014725;28;20428;-76
2022/12/12 03:44:38;;;;;;;42.78;24.67;;;;;;;-4.18;100.00;101169.41;5014733;28;20030;-76
2022/12/12 03:47:10;;;;;;;44.40;23.65;;;;;;;-4.44;100.00;101136.53;5014617;28;20017;-75
2022/12/12 03:49:42;;;;;;;42.70;24.10;;;;;;;-4.40;100.00;101140.78;5014768;28;20022;-75
2022/12/12 03:52:20;;;;;;;45.63;25.00;;;;;;;-4.53;100.00;101126.41;5014688;28;20034;-76
2022/12/12 03:54:51;;;;;;;41.90;22.85;;;;;;;-4.35;100.00;101168.50;5014553;28;20030;-83
2022/12/12 03:57:32;;;;;;;41.00;23.10;;;;;;;-4.37;100.00;101167.66;5014350;28;20062;-82
2022/12/12 04:00:02;;;;;;;44.45;24.92;;;;;;;-4.51;100.00;101144.94;5014562;28;20108;-87
2022/12/12 04:02:50;;;;;;;45.13;24.13;;;;;;;-4.48;100.00;101162.59;5014436;28;20029;-86
2022/12/12 04:05:27;;;;;;;43.10;23.58;;;;;;;-4.45;100.00;101172.66;5014375;28;20021;-87
2022/12/12 04:08:01;;;;;;;41.97;23.63;;;;;;;-4.52;100.00;101165.94;5014409;28;20069;-85
2022/12/12 04:13:34;;;;;;;46.80;26.40;;;;;;;-4.52;100.00;101178.53;5014777;28;20037;-85
2022/12/12 04:16:14;;;;;;;45.30;25.63;;;;;;;-4.55;100.00;101181.03;5014181;28;20048;-81
2022/12/12 04:18:59;;;;;;;44.88;25.25;;;;;;;-4.62;100.00;101179.34;5014349;28;20025;-77
2022/12/12 04:25:11;;;;;;;45.30;24.48;;;;;;;-4.65;100.00;101187.69;5014736;28;20045;-83
2022/12/12 04:27:43;;;;;;;42.70;23.52;;;;;;;-4.92;100.00;101148.13;4992286;28;20036;-86
2022/12/12 04:30:11;;;;;;;44.90;27.38;;;;;;;-4.73;100.00;101175.91;4992418;28;20118;-85
2022/12/12 04:33:05;;;;;;;48.40;26.77;;;;;;;-4.79;100.00;101169.16;4992520;28;20034;-86
2022/12/12 04:35:35;;;;;;;47.42;27.00;;;;;;;-4.74;100.00;101181.78;4992331;28;20510;-87
2022/12/12 04:38:08;;;;;;;46.35;24.55;;;;;;;-4.77;100.00;101187.63;4992366;28;20130;-84
2022/12/12 04:40:42;;;;;;;48.45;24.88;;;;;;;-4.90;100.00;101170.78;4992384;28;20384;-88
2022/12/12 04:43:10;;;;;;;44.92;24.95;;;;;;;-4.94;100.00;101171.59;4991943;28;20041;-87
2022/12/12 04:45:55;;;;;;;45.45;25.02;;;;;;;-4.96;100.00;101175.78;4992222;28;20042;-88
2022/12/12 04:48:28;;;;;;;44.45;25.45;;;;;;;-4.85;100.00;101203.53;4992164;28;20034;-76
2022/12/12 04:50:56;;;;;;;41.90;23.05;;;;;;;-4.88;100.00;101199.34;4992200;28;20066;-81
2022/12/12 04:53:28;;;;;;;45.22;23.17;;;;;;;-4.89;100.00;101201.84;4992018;28;20034;-76
2022/12/12 04:56:00;;;;;;;43.67;24.80;;;;;;;-4.91;100.00;101196.81;4991688;28;20502;-79
2022/12/12 04:58:26;;;;;;;42.60;22.60;;;;;;;-4.94;100.00;101197.59;4991745;28;20394;-78
2022/12/12 05:00:57;;;;;;;42.08;23.08;;;;;;;-4.97;100.00;101196.75;4997565;28;20378;-79
2022/12/12 05:03:34;;;;;;;47.47;25.30;;;;;;;-4.99;100.00;101195.91;5013664;28;20061;-76
2022/12/12 05:06:04;;;;;;;44.88;25.35;;;;;;;-5.18;100.00;101172.28;5013337;28;20124;-78
2022/12/12 05:08:37;;;;;;;49.08;27.08;;;;;;;-5.04;100.00;101193.34;5013363;28;20024;-80
2022/12/12 05:11:05;;;;;;;51.30;27.95;;;;;;;-5.05;100.00;101199.22;5013909;28;20477;-84
2022/12/12 05:13:36;;;;;;;52.55;27.83;;;;;;;-5.29;100.00;101161.31;5013472;28;20034;-80
2022/12/12 05:16:05;;;;;;;;;;;;;;;-5.05;100.00;101194.19;5013993;28;20428;-77
2022/12/12 05:18:30;;;;;;;52.65;28.88;;;;;;;-5.22;100.00;101165.53;5013355;28;19913;-80
2022/12/12 05:20:56;;;;;;;50.95;29.30;;;;;;;-5.11;100.00;101185.72;5013210;28;20026;-79
2022/12/12 05:23:21;;;;;;;49.83;27.23;;;;;;;-5.26;100.00;101169.72;5013579;28;20025;-77
2022/12/12 05:25:46;;;;;;;48.58;26.50;;;;;;;-5.13;100.00;101192.44;5013409;28;20050;-79
2022/12/12 05:28:12;;;;;;;47.92;27.00;;;;;;;-5.78;100.00;101088.81;5013345;28;20017;-83
2022/12/12 05:30:43;;;;;;;51.40;27.77;;;;;;;-5.24;100.00;101178.09;5013432;28;20354;-88
2022/12/12 05:33:08;;;;;;;54.83;30.33;;;;;;;-5.15;100.00;101200.00;5013287;28;20524;-86
2022/12/12 05:35:34;;;;;;;51.17;28.75;;;;;;;-5.17;100.00;101203.34;5013219;28;20022;-77
2022/12/12 05:38:02;;;;;;;58.30;30.73;;;;;;;-5.26;100.00;101199.91;5013193;28;20029;-75
2022/12/12 05:40:28;;;;;;;60.08;29.45;;;;;;;-5.39;100.00;101174.66;5012930;28;20482;-83
2022/12/12 05:42:53;;;;;;;57.22;29.65;;;;;;;-5.37;100.00;101183.06;5012789;28;20077;-83
2022/12/12 05:45:18;;;;;;;58.47;30.77;;;;;;;-5.25;100.00;101209.16;5013023;28;20033;-84
2022/12/12 05:47:44;;;;;;;53.00;30.48;;;;;;;-5.28;100.00;101205.78;5013191;28;20115;-82
2022/12/12 05:50:09;;;;;;;49.00;27.73;;;;;;;-5.47;100.00;101181.28;5013261;28;20037;-89
2022/12/12 05:52:34;;;;;;;50.55;27.95;;;;;;;-5.34;100.00;101210.75;5013110;28;20049;-89
2022/12/12 05:55:00;;;;;;;53.83;27.88;;;;;;;-5.34;100.00;101219.13;5016716;28;20030;-87
2022/12/12 05:57:25;;;;;;;50.05;26.90;;;;;;;-5.35;100.00;101216.63;5016520;28;20050;-81
2022/12/12 05:59:50;;;;;;;51.83;27.52;;;;;;;-5.42;100.00;101209.84;5016726;28;20033;-84
2022/12/12 06:02:16;;;;;;;47.58;26.63;;;;;;;-5.40;100.00;101218.28;5016659;28;20033;-84
2022/12/12 06:04:42;;;;;;;49.90;26.25;;;;;;;-5.42;100.00;101217.38;5016682;28;20030;-85
2022/12/12 06:07:07;;;;;;;50.25;26.42;;;;;;;-5.59;100.00;101192.94;5016475;28;20477;-75
2022/12/12 06:09:33;;;;;;;48.88;27.50;;;;;;;-5.46;100.00;101218.19;5016567;28;20076;-73
2022/12/12 06:11:58;;;;;;;49.20;26.02;;;;;;;-5.49;100.00;101219.03;5016707;28;20034;-75
2022/12/12 06:14:25;;;;;;;51.00;26.90;;;;;;;-5.52;100.00;101207.25;5016370;28;20026;-75
2022/12/12 06:16:51;;;;;;;53.67;26.02;;;;;;;-5.54;100.00;101213.94;4998647;28;20448;-75
2022/12/12 06:19:19;;;;;;;46.95;24.23;;;;;;;-5.56;100.00;101218.13;5016411;28;20030;-79
2022/12/12 06:21:45;;;;;;;46.55;26.77;;;;;;;-5.58;100.00;101219.78;5015997;28;20041;-87
2022/12/12 06:24:11;;;;;;;50.88;27.90;;;;;;;-5.72;100.00;101208.72;5016287;28;20030;-87
2022/12/12 06:26:36;;;;;;;50.13;27.50;;;;;;;-5.61;100.00;101222.25;4998842;28;20369;-88
2022/12/12 06:29:02;;;;;;;49.80;27.27;;;;;;;-5.74;100.00;101205.38;5016151;28;20132;-87
2022/12/12 06:31:28;;;;;;;50.30;26.95;;;;;;;-5.62;100.00;101229.78;5016133;28;20014;-87
2022/12/12 06:33:53;;;;;;;50.70;26.65;;;;;;;-5.83;100.00;101201.09;5016189;28;20029;-86
2022/12/12 06:36:24;;;;;;;49.08;25.65;;;;;;;-5.65;100.00;101228.09;5015961;28;20073;-85
2022/12/12 06:38:55;;;;;;;45.47;24.38;;;;;;;-5.65;100.00;101234.78;5016021;28;20032;-85
2022/12/12 06:41:22;;;;;;;50.85;25.42;;;;;;;-5.73;100.00;101213.75;5016476;28;20034;-83
2022/12/12 06:43:48;;;;;;;45.45;25.00;;;;;;;-5.64;100.00;101244.88;5015854;28;20116;-87
2022/12/12 06:46:19;;;;;;;43.33;23.50;;;;;;;-5.63;100.00;101241.53;5015963;28;20124;-85
2022/12/12 06:48:45;;;;;;;51.08;26.13;;;;;;;-5.71;100.00;101233.06;5015981;28;20143;-83
2022/12/12 06:51:13;;;;;;;45.28;22.90;;;;;;;-5.66;100.00;101245.69;5015663;28;20034;-85
2022/12/12 06:53:39;;;;;;;49.28;24.25;;;;;;;-5.73;100.00;101236.38;5015827;28;20026;-75
2022/12/12 06:56:09;;;;;;;45.20;24.13;;;;;;;-5.78;100.00;101236.34;5015787;28;20401;-83
2022/12/12 06:58:35;;;;;;;47.60;25.40;;;;;;;-5.75;100.00;101251.47;5015944;28;20034;-84
2022/12/12 07:01:00;;;;;;;45.63;24.58;;;;;;;-5.80;100.00;101255.59;5015595;28;20026;-82
2022/12/12 07:03:26;;;;;;;47.10;25.35;;;;;;;-5.82;100.00;101257.25;5015691;28;20497;-81
2022/12/12 07:05:51;;;;;;;47.10;24.95;;;;;;;-5.96;100.00;101238.69;5014159;28;20032;-81
2022/12/12 07:08:16;;;;;;;47.75;24.58;;;;;;;-5.86;100.00;101256.38;5015393;28;20056;-79
2022/12/12 07:10:43;;;;;;;46.42;22.83;;;;;;;-5.91;100.00;101239.59;5015437;28;20060;-76
2022/12/12 07:13:08;;;;;;;49.38;24.45;;;;;;;-5.87;100.00;101266.44;5014450;28;20041;-85
2022/12/12 07:15:34;;;;;;;50.38;25.50;;;;;;;-5.92;100.00;101260.53;5015492;28;20026;-86
2022/12/12 07:17:59;;;;;;;44.92;24.85;;;;;;;-6.04;100.00;101247.81;5015110;28;20053;-86
2022/12/12 07:20:24;;;;;;;49.88;25.65;;;;;;;-5.92;100.00;101268.06;5015263;28;20432;-84
2022/12/12 07:22:50;;;;;;;45.22;23.77;;;;;;;-5.93;100.00;101277.28;5015075;28;20172;-85
2022/12/12 07:25:16;;;;;;;49.35;25.92;;;;;;;-6.16;100.00;101248.53;5016075;28;20454;-85
2022/12/12 07:27:41;;;;;;;46.35;26.02;;;;;;;-5.99;100.00;101274.72;5015976;28;20021;-87
2022/12/12 07:30:07;;;;;;;49.38;26.48;;;;;;;-6.01;100.00;101283.03;5014903;28;20592;-84
2022/12/12 07:32:33;;;;;;;49.10;25.77;;;;;;;-6.01;100.00;101278.03;5015010;28;20018;-83
2022/12/12 07:34:58;;;;;;;48.10;25.15;;;;;;;-6.21;100.00;101256.00;5015090;28;20559;-87
2022/12/12 07:37:23;;;;;;;47.45;25.10;;;;;;;-6.07;100.00;101283.84;5014920;28;20037;-86
2022/12/12 07:39:49;;;;;;;49.88;24.67;;;;;;;-6.12;100.00;101268.69;4997294;28;20033;-87
2022/12/12 07:42:14;;;;;;;46.63;25.60;;;;;;;-6.08;100.00;101275.44;5014967;28;20026;-88
2022/12/12 07:44:39;;;;;;;48.33;25.50;;;;;;;-6.22;100.00;101258.50;5015039;28;20364;-84
2022/12/12 07:47:05;;;;;;;45.47;25.30;;;;;;;-6.06;100.00;101290.56;5014591;28;20430;-86
2022/12/12 07:49:30;;;;;;;48.28;26.67;;;;;;;-6.06;100.00;101283.00;5014772;28;20028;-86
2022/12/12 07:51:56;;;;;;;53.10;25.88;;;;;;;-6.17;100.00;101264.44;5014718;28;20030;-84
2022/12/12 07:54:21;;;;;;;50.95;25.63;;;;;;;-6.05;100.00;101289.72;5014500;28;20099;-85
2022/12/12 07:56:46;;;;;;;51.92;27.23;;;;;;;-6.04;100.00;101293.91;5014336;28;20152;-85
2022/12/12 07:59:12;;;;;;;50.97;27.35;;;;;;;-6.01;100.00;101283.03;5014375;28;20029;-86
2022/12/12 08:01:40;;;;;;;47.53;25.88;;;;;;;-6.44;100.00;101217.19;5014278;28;20030;-86
2022/12/12 08:04:05;;;;;;;51.20;25.90;;;;;;;-5.99;100.00;101294.00;5013072;28;20030;-85
2022/12/12 08:06:31;;;;;;;50.70;25.50;;;;;;;-5.94;100.00;101295.72;5014439;28;20022;-83
2022/12/12 08:08:56;;;;;;;48.92;23.70;;;;;;;-5.96;100.00;101292.34;5014177;28;20034;-82
2022/12/12 08:11:24;;;;;;;54.47;26.55;;;;;;;-5.85;100.00;101297.47;5014300;28;20025;-85
2022/12/12 08:13:50;;;;;;;53.58;27.25;;;;;;;-5.81;100.00;101297.50;5014250;28;20097;-85
2022/12/12 08:16:27;;;;;;;50.65;25.55;;;;;;;-6.02;100.00;101262.09;5013777;28;20052;-84
2022/12/12 08:18:54;;;;;;;53.05;25.05;;;;;;;-5.69;100.00;101304.38;5014166;28;20100;-85
2022/12/12 08:21:20;;;;;;;52.80;27.98;;;;;;;-5.64;100.00;101301.88;5014100;28;20030;-82
2022/12/12 08:23:45;;;;;;;50.53;26.50;;;;;;;-6.09;100.00;101228.53;5014162;28;20038;-86
2022/12/12 08:26:13;;;;;;;56.30;27.05;;;;;;;-5.61;100.00;101317.84;5014113;28;20037;-88
2022/12/12 08:28:40;;;;;;;55.25;27.13;;;;;;;-5.65;100.00;101298.53;5014115;28;20084;-86
2022/12/12 08:31:06;;;;;;;53.88;26.90;;;;;;;-5.54;100.00;101312.06;5013785;28;20094;-86
2022/12/12 08:33:31;;;;;;;54.17;26.90;;;;;;;-5.57;100.00;101303.66;5013886;28;20026;-83
2022/12/12 08:35:57;;;;;;;49.33;24.90;;;;;;;-5.61;100.00;101295.22;5013834;28;20030;-83
2022/12/12 08:38:23;;;;;;;53.38;25.48;;;;;;;-5.42;100.00;101320.56;5013850;28;20061;-82
2022/12/12 08:40:48;;;;;;;52.75;27.00;;;;;;;-5.38;100.00;101319.78;5013654;28;20056;-81
2022/12/12 08:43:13;;;;;;;48.70;24.50;;;;;;;-5.59;100.00;101288.53;5013828;28;20076;-76
2022/12/12 08:45:39;;;;;;;56.03;25.13;;;;;;;-5.33;100.00;101326.53;5012746;28;20095;-77
2022/12/12 08:48:07;;;;;;;57.55;25.42;;;;;;;-5.31;100.00;101329.94;5013810;28;20030;-85
2022/12/12 08:50:33;;;;;;;52.75;25.63;;;;;;;-5.42;100.00;101305.47;5013804;28;20109;-85
2022/12/12 08:52:58;;;;;;;58.28;27.05;;;;;;;-5.24;100.00;101323.25;5013085;28;20089;-88
2022/12/12 08:55:24;;;;;;;51.58;24.85;;;;;;;-5.37;100.00;101297.16;5012049;28;20029;-82
2022/12/12 08:57:49;;;;;;;56.08;27.20;;;;;;;-5.33;100.00;101303.03;5013348;28;20053;-88
2022/12/12 09:00:15;;;;;;;53.88;26.30;;;;;;;-5.18;100.00;101323.34;5013320;28;20045;-84
2022/12/12 09:02:42;;;;;;;60.53;28.52;;;;;;;-5.09;100.00;101327.63;5013367;28;20021;-86
2022/12/12 09:05:08;;;;;;;59.05;27.80;;;;;;;-5.32;100.00;101287.94;5013535;28;20066;-81
2022/12/12 09:07:34;;;;;;;53.05;24.33;;;;;;;-5.01;100.00;101338.59;4995457;28;20038;-78
2022/12/12 09:09:59;;;;;;;53.78;25.30;;;;;;;-4.97;100.00;101335.28;5012951;28;20025;-86
2022/12/12 09:12:24;;;;;;;56.33;25.02;;;;;;;-4.91;100.00;101336.19;5013586;28;20022;-84
2022/12/12 09:14:50;;;;;;;57.85;27.75;;;;;;;-5.03;100.00;101310.88;5013610;28;20026;-82
2022/12/12 09:17:15;;;;;;;54.08;24.35;;;;;;;-4.97;100.00;101310.09;5013386;28;20029;-86
2022/12/12 09:19:40;;;;;;;52.92;25.85;;;;;;;-4.92;100.00;101314.34;5013381;28;20025;-81
2022/12/12 09:22:06;;;;;;;50.20;25.92;;;;;;;-4.84;100.00;101326.13;5013312;28;20034;-84
2022/12/12 09:24:31;;;;;;;50.88;24.17;;;;;;;-4.97;100.00;101295.81;5013237;28;20100;-81
2022/12/12 09:26:56;;;;;;;58.03;26.80;;;;;;;-4.83;100.00;101307.66;5013290;28;20030;-87
2022/12/12 09:29:21;;;;;;;54.60;25.40;;;;;;;-4.62;100.00;101338.09;5011427;28;20030;-88
2022/12/12 09:31:47;;;;;;;48.35;24.77;;;;;;;-4.58;100.00;101343.97;5012832;28;20029;-87
2022/12/12 09:34:12;;;;;;;50.53;23.30;;;;;;;-4.55;100.00;101334.75;5012137;28;20026;-89
2022/12/12 09:36:38;;;;;;;50.33;23.25;;;;;;;-4.64;100.00;101309.47;5013318;28;20033;-87
2022/12/12 09:39:03;;;;;;;55.55;23.90;;;;;;;-4.41;100.00;101328.16;5013083;28;20052;-87
2022/12/12 09:41:29;;;;;;;56.65;23.65;;;;;;;-4.36;100.00;101335.72;5013044;28;20026;-87
2022/12/12 09:43:59;;;;;;;51.58;22.98;;;;;;;-4.38;100.00;101315.56;5013057;28;20029;-86
2022/12/12 09:46:56;;;;;;;56.30;25.50;;;;;;;-4.37;100.00;101302.09;5013004;28;20028;-88
2022/12/12 09:49:38;;;;;;;52.55;25.80;;;;;;;-4.14;100.00;101329.13;4991141;28;20035;-85
2022/12/12 09:52:04;;;;;;;51.40;21.30;;;;;;;-4.37;100.00;101278.56;4991162;28;20033;-84
2022/12/12 09:54:30;;;;;;;50.80;24.30;;;;;;;-4.22;100.00;101298.84;4991155;28;20044;-82
2022/12/12 09:57:03;;;;;;;48.83;22.80;;;;;;;-4.05;100.00;101326.63;4991023;28;20054;-80
2022/12/12 09:59:39;;;;;;;50.83;22.00;;;;;;;-4.06;100.00;101319.91;4991354;28;20042;-81
2022/12/12 10:02:32;;;;;;;52.45;23.05;;;;;;;-3.99;100.00;101326.69;4991076;28;20113;-78
2022/12/12 10:05:16;;;;;;;50.30;23.35;;;;;;;-4.11;100.00;101299.72;4991506;28;20034;-79
2022/12/12 10:07:54;;;;;;;49.25;21.70;;;;;;;-3.99;100.00;101314.06;4991139;28;20105;-85
2022/12/12 10:10:26;;;;;;;48.50;20.60;;;;;;;-3.97;100.00;101317.44;4991089;28;20109;-85
2022/12/12 10:12:54;;;;;;;48.50;21.98;;;;;;;-3.86;100.00;101327.56;4991107;28;20042;-84
2022/12/12 10:15:37;;;;;;;48.80;20.95;;;;;;;-3.84;100.00;101329.25;4991209;28;20034;-80
2022/12/12 10:18:08;;;;;;;47.72;20.67;;;;;;;-3.79;100.00;101325.09;4990961;28;20038;-85
2022/12/12 10:20:39;;;;;;;;;;;;;;;-3.78;100.00;101324.25;4991432;28;20034;-89
2022/12/12 10:23:13;;;;;;;47.83;19.80;;;;;;;-3.79;100.00;101312.47;4991232;28;19913;-86
2022/12/12 10:25:51;;;;;;;47.47;20.10;;;;;;;-3.66;100.00;101325.13;5001318;28;20072;-86
2022/12/12 10:28:19;;;;;;;40.65;19.50;;;;;;;-3.79;100.00;101304.06;5012999;28;20033;-87
2022/12/12 10:31:08;;;;;;;45.45;19.23;;;;;;;-3.62;100.00;101321.78;5013145;28;20026;-79
2022/12/12 10:33:45;;;;;;;40.00;18.73;;;;;;;-3.58;100.00;101326.00;5012698;28;20065;-87
2022/12/12 10:36:30;;;;;;;43.58;19.15;;;;;;;-3.56;100.00;101317.56;5012868;28;20113;-87
2022/12/12 10:38:55;;;;;;;41.75;20.17;;;;;;;-3.52;100.00;101314.25;5013268;28;20026;-89
2022/12/12 10:41:32;;;;;;;45.88;19.92;;;;;;;-3.49;100.00;101305.81;5016201;28;20030;-87
2022/12/12 10:44:24;;;;;;;42.13;18.00;;;;;;;-3.46;100.00;101310.88;5016333;28;20034;-88
2022/12/12 10:47:03;;;;;;;41.70;17.77;;;;;;;-3.57;100.00;101282.25;5015416;28;20125;-87
2022/12/12 10:49:29;;;;;;;44.72;19.77;;;;;;;-3.47;100.00;101291.50;5016187;28;20107;-92
2022/12/12 10:51:56;;;;;;;44.88;19.00;;;;;;;-3.39;100.00;101302.47;5016169;28;20502;-83
2022/12/12 10:54:25;;;;;;;42.08;19.00;;;;;;;-3.42;100.00;101292.38;5016483;28;20033;-89
2022/12/12 10:57:12;;;;;;;45.15;19.85;;;;;;;-3.32;100.00;101299.13;5014476;28;20829;-83
2022/12/12 10:59:44;;;;;;;42.35;20.00;;;;;;;-3.36;100.00;101294.91;5015925;28;20029;-80
2022/12/12 11:02:25;;;;;;;40.58;18.83;;;;;;;-3.24;100.00;101304.19;5014959;28;20104;-88
2022/12/12 11:04:58;;;;;;;37.53;18.05;;;;;;;-3.28;100.00;101290.69;5015614;28;20026;-86
2022/12/12 11:07:24;;;;;;;38.28;18.73;;;;;;;-3.32;100.00;101270.50;5015727;28;20036;-85
2022/12/12 11:09:49;;;;;;;40.63;18.42;;;;;;;-3.14;100.00;101287.38;5015725;28;20034;-85
2022/12/12 11:12:15;;;;;;;41.13;18.23;;;;;;;-3.24;100.00;101258.75;5015738;28;20026;-85
2022/12/12 11:14:51;;;;;;;37.33;18.92;;;;;;;-3.01;100.00;101297.47;5015661;28;20025;-84
2022/12/12 11:17:32;;;;;;;39.42;19.15;;;;;;;-3.15;100.00;101263.75;5015460;28;20034;-88
2022/12/12 11:19:59;;;;;;;37.97;17.38;;;;;;;-2.96;100.00;101284.81;5015319;28;20030;-86
2022/12/12 11:22:26;;;;;;;37.75;17.85;;;;;;;-2.93;100.00;101288.22;5015296;28;20381;-87
2022/12/12 11:24:52;;;;;;;36.33;16.83;;;;;;;-3.20;100.00;101232.63;4997709;28;20018;-84